Time;durP1;ratioP1;P1;durP2;ratioP2;P2;SDS_P1;SDS_P2;PMS_P1;PMS_P2;Temp;Humidity;BMP_temperature;BMP_pressure;BME280_temperature;BME280_humidity;BME280_pressure;Samples;Min_cycle;Max_cycle;Signal;HPM_P1;HPM_P2
2022/03/26 00:01:56;;;;;;;;;;;4.00;84.10;;;;;;5053380;28;20361;-71
2022/03/26 00:04:21;;;;;;;;;;;4.10;83.70;;;;;;5049839;28;19917;-71
2022/03/26 00:06:47;;;;;;;;;;;4.00;84.10;;;;;;5050126;28;20274;-71
2022/03/26 00:09:12;;;;;;;;;;;3.90;84.60;;;;;;5038981;28;19963;-71
2022/03/26 00:11:37;;;;;;;;;;;3.80;85.20;;;;;;5033757;28;19909;-71
2022/03/26 00:14:03;;;;;;;;;;;3.50;86.10;;;;;;5033827;28;20003;-71
2022/03/26 00:16:28;;;;;;;;;;;3.20;87.40;;;;;;5033903;28;19917;-71
2022/03/26 00:18:54;;;;;;;;;;;2.90;89.20;;;;;;5035053;28;20425;-71
2022/03/26 00:21:20;;;;;;;;;;;3.00;88.60;;;;;;5039120;28;20010;-71
2022/03/26 00:23:46;;;;;;;;;;;3.10;88.40;;;;;;5033699;28;19909;-71
2022/03/26 00:26:12;;;;;;;;;;;3.20;87.60;;;;;;5033847;28;19996;-71
2022/03/26 00:28:38;;;;;;;;;;;3.20;87.00;;;;;;5033662;28;19924;-71
2022/03/26 00:31:04;;;;;;;;;;;3.10;87.40;;;;;;5033714;28;19909;-71
2022/03/26 00:33:29;;;;;;;;;;;3.20;87.40;;;;;;5033347;28;19963;-71
2022/03/26 00:35:56;;;;;;;;;;;2.90;88.10;;;;;;5041193;28;19959;-71
2022/03/26 00:38:21;;;;;;;;;;;2.70;89.30;;;;;;5033678;28;20285;-71
2022/03/26 00:40:47;;;;;;;;;;;2.60;90.30;;;;;;5033350;28;19999;-71
2022/03/26 00:43:13;;;;;;;;;;;2.70;90.20;;;;;;5033248;28;19920;-71
2022/03/26 00:45:38;;;;;;;;;;;2.90;90.10;;;;;;5032509;28;19909;-71
2022/03/26 00:48:04;;;;;;;;;;;3.10;89.60;;;;;;5033374;28;19995;-71
2022/03/26 00:50:30;;;;;;;;;;;3.10;89.30;;;;;;5033421;28;20200;-71
2022/03/26 00:52:56;;;;;;;;;;;3.20;88.60;;;;;;5033235;28;20003;-71
2022/03/26 00:55:21;;;;;;;;;;;3.30;88.20;;;;;;5034630;28;19913;-71
2022/03/26 00:57:47;;;;;;;;;;;3.20;88.30;;;;;;5042709;28;20440;-71
2022/03/26 01:00:13;;;;;;;;;;;2.90;89.80;;;;;;5033205;28;20465;-71
2022/03/26 01:02:39;;;;;;;;;;;2.80;90.00;;;;;;5034045;28;19995;-71
2022/03/26 01:05:05;;;;;;;;;;;2.60;90.30;;;;;;5038364;28;19909;-71
2022/03/26 01:07:31;;;;;;;;;;;2.50;90.30;;;;;;5037739;28;19909;-71
2022/03/26 01:09:57;;;;;;;;;;;2.40;90.60;;;;;;5032799;28;19915;-71
2022/03/26 01:12:23;;;;;;;;;;;2.40;90.70;;;;;;5032858;28;20146;-71
2022/03/26 01:14:50;;;;;;;;;;;2.50;90.40;;;;;;5032810;28;19955;-71
2022/03/26 01:17:16;;;;;;;;;;;2.40;90.40;;;;;;5032665;28;19917;-71
2022/03/26 01:19:41;;;;;;;;;;;2.50;90.70;;;;;;5032989;28;19935;-71
2022/03/26 01:22:07;;;;;;;;;;;2.60;90.30;;;;;;5032030;28;19956;-71
2022/03/26 01:24:32;;;;;;;;;;;2.50;90.70;;;;;;5049343;28;20334;-71
2022/03/26 01:26:58;;;;;;;;;;;2.60;90.40;;;;;;5034408;28;19909;-71
2022/03/26 01:29:24;;;;;;;;;;;2.50;90.50;;;;;;5032552;28;19913;-71
2022/03/26 01:31:49;;;;;;;;;;;2.40;90.70;;;;;;5032496;28;19992;-71
2022/03/26 01:34:15;;;;;;;;;;;2.60;90.50;;;;;;5032215;28;19952;-71
2022/03/26 01:36:41;;;;;;;;;;;2.60;90.40;;;;;;5032504;28;19935;-71
2022/03/26 01:39:07;;;;;;;;;;;2.50;90.40;;;;;;5032275;28;19909;-71
2022/03/26 01:41:33;;;;;;;;;;;2.60;90.40;;;;;;5032170;28;19916;-71
2022/03/26 01:43:59;;;;;;;;;;;2.60;90.50;;;;;;5032147;28;19909;-71
2022/03/26 01:46:24;;;;;;;;;;;2.30;91.10;;;;;;5032307;28;19913;-71
2022/03/26 01:48:50;;;;;;;;;;;2.20;91.60;;;;;;5032272;28;20376;-71
2022/03/26 01:51:16;;;;;;;;;;;2.10;91.60;;;;;;5032096;28;20410;-71
2022/03/26 01:53:43;;;;;;;;;;;2.00;92.20;;;;;;5040197;28;20326;-71
2022/03/26 01:56:08;;;;;;;;;;;2.00;92.00;;;;;;5042479;28;19916;-71
2022/03/26 01:58:34;;;;;;;;;;;2.10;91.50;;;;;;5032218;28;19913;-71
2022/03/26 02:00:59;;;;;;;;;;;2.00;91.70;;;;;;5032015;28;20283;-71
2022/03/26 02:03:25;;;;;;;;;;;1.90;91.90;;;;;;5030561;28;19936;-71
2022/03/26 02:05:52;;;;;;;;;;;1.90;91.70;;;;;;5032113;28;20361;-71
2022/03/26 02:08:18;;;;;;;;;;;1.80;92.20;;;;;;5031912;28;19909;-71
2022/03/26 02:10:43;;;;;;;;;;;1.70;92.70;;;;;;5031979;28;19909;-71
2022/03/26 02:13:09;;;;;;;;;;;1.70;92.80;;;;;;5031523;28;19936;-71
2022/03/26 02:15:36;;;;;;;;;;;1.80;92.80;;;;;;5031832;28;19975;-71
2022/03/26 02:18:03;;;;;;;;;;;1.80;92.60;;;;;;5031448;28;20322;-71
2022/03/26 02:20:29;;;;;;;;;;;1.90;92.60;;;;;;5031725;28;19913;-69
2022/03/26 02:22:55;;;;;;;;;;;2.10;92.40;;;;;;5037524;28;19908;-69
2022/03/26 02:25:20;;;;;;;;;;;2.20;92.10;;;;;;5036731;28;19913;-71
2022/03/26 02:27:46;;;;;;;;;;;2.10;92.20;;;;;;5032647;28;20345;-71
2022/03/26 02:30:12;;;;;;;;;;;2.10;92.50;;;;;;5033419;28;19917;-71
2022/03/26 02:32:37;;;;;;;;;;;1.90;92.90;;;;;;5036904;28;19909;-71
2022/03/26 02:35:03;;;;;;;;;;;1.80;93.20;;;;;;5031529;28;19938;-71
2022/03/26 02:37:30;;;;;;;;;;;1.80;93.20;;;;;;5031440;28;19935;-71
2022/03/26 02:39:55;;;;;;;;;;;1.60;93.60;;;;;;5044411;28;19912;-71
2022/03/26 02:42:21;;;;;;;;;;;1.80;93.20;;;;;;5036559;28;20051;-71
2022/03/26 02:44:46;;;;;;;;;;;1.70;93.40;;;;;;5031608;28;20016;-71
2022/03/26 02:47:12;;;;;;;;;;;1.80;93.60;;;;;;5033480;28;19917;-71
2022/03/26 02:49:38;;;;;;;;;;;1.90;93.30;;;;;;5038503;28;19915;-71
2022/03/26 02:52:04;;;;;;;;;;;2.00;93.00;;;;;;5034096;28;19909;-72
2022/03/26 02:54:30;;;;;;;;;;;1.80;93.60;;;;;;5031821;28;19909;-71
2022/03/26 02:56:55;;;;;;;;;;;1.40;94.00;;;;;;5031633;28;19913;-71
2022/03/26 02:59:21;;;;;;;;;;;1.40;95.00;;;;;;5041071;28;19909;-71
2022/03/26 03:01:46;;;;;;;;;;;1.80;94.00;;;;;;5031880;28;20450;-71
2022/03/26 03:04:12;;;;;;;;;;;1.90;93.50;;;;;;5031236;28;19921;-71
2022/03/26 03:06:37;;;;;;;;;;;2.00;93.40;;;;;;5031356;28;19913;-71
2022/03/26 03:09:04;;;;;;;;;;;2.00;93.50;;;;;;5032651;28;19916;-71
2022/03/26 03:11:30;;;;;;;;;;;1.80;94.00;;;;;;5035026;28;19909;-71
2022/03/26 03:13:55;;;;;;;;;;;1.40;94.80;;;;;;5035071;28;19909;-71
2022/03/26 03:16:21;;;;;;;;;;;1.30;94.50;;;;;;5040065;28;19923;-71
2022/03/26 03:18:46;;;;;;;;;;;1.30;94.60;;;;;;5041498;28;19909;-71
2022/03/26 03:21:12;;;;;;;;;;;1.30;94.70;;;;;;5033616;28;19944;-71
2022/03/26 03:23:37;;;;;;;;;;;1.10;95.50;;;;;;5040887;28;20418;-71
2022/03/26 03:26:03;;;;;;;;;;;1.00;95.70;;;;;;5046117;28;19913;-71
2022/03/26 03:28:29;;;;;;;;;;;0.90;96.40;;;;;;5034844;28;19916;-71
2022/03/26 03:30:55;;;;;;;;;;;0.90;96.60;;;;;;5035948;28;19970;-71
2022/03/26 03:33:20;;;;;;;;;;;0.90;96.60;;;;;;5038477;28;19909;-71
2022/03/26 03:35:46;;;;;;;;;;;1.10;96.40;;;;;;5034717;28;19917;-71
2022/03/26 03:38:11;;;;;;;;;;;1.10;96.20;;;;;;5034462;28;19917;-71
2022/03/26 03:40:37;;;;;;;;;;;1.20;96.00;;;;;;5034591;28;19913;-71
2022/03/26 03:43:02;;;;;;;;;;;1.20;95.60;;;;;;5034552;28;20004;-71
2022/03/26 03:45:28;;;;;;;;;;;1.20;95.60;;;;;;5034336;28;20354;-71
2022/03/26 03:47:53;;;;;;;;;;;1.10;96.00;;;;;;5034634;28;19909;-71
2022/03/26 03:50:19;;;;;;;;;;;1.10;96.20;;;;;;5039353;28;19913;-71
2022/03/26 03:52:45;;;;;;;;;;;1.10;96.10;;;;;;5040310;28;19916;-71
2022/03/26 03:55:11;;;;;;;;;;;1.10;96.30;;;;;;5034251;28;19909;-71
2022/03/26 03:57:43;;;;;;;;;;;1.00;96.20;;;;;;5034309;28;20059;-71
2022/03/26 04:00:09;;;;;;;;;;;0.90;96.50;;;;;;5034276;28;20337;-71
2022/03/26 04:02:35;;;;;;;;;;;0.90;96.60;;;;;;5034208;28;19916;-71
2022/03/26 04:05:00;;;;;;;;;;;0.90;96.40;;;;;;5034437;28;19909;-71
2022/03/26 04:07:26;;;;;;;;;;;0.80;97.00;;;;;;5034232;28;19975;-71
2022/03/26 04:09:51;;;;;;;;;;;0.60;98.00;;;;;;5034022;28;19913;-71
2022/03/26 04:12:17;;;;;;;;;;;0.60;98.10;;;;;;5033916;28;19909;-71
2022/03/26 04:14:43;;;;;;;;;;;0.50;98.20;;;;;;5051839;28;19916;-71
2022/03/26 04:17:10;;;;;;;;;;;0.40;98.80;;;;;;5042617;28;19928;-71
2022/03/26 04:19:36;;;;;;;;;;;0.30;99.10;;;;;;5034058;28;19959;-71
2022/03/26 04:22:01;;;;;;;;;;;0.40;99.20;;;;;;5033916;28;20281;-71
2022/03/26 04:24:27;;;;;;;;;;;0.60;99.20;;;;;;5046278;28;20279;-71
2022/03/26 04:26:53;;;;;;;;;;;0.60;99.30;;;;;;5037529;28;19909;-71
2022/03/26 04:29:19;;;;;;;;;;;0.50;99.70;;;;;;5033672;28;20381;-71
2022/03/26 04:31:45;;;;;;;;;;;0.50;99.80;;;;;;5033667;28;19947;-71
2022/03/26 04:34:11;;;;;;;;;;;0.40;99.90;;;;;;5032778;28;19909;-71
2022/03/26 04:36:36;;;;;;;;;;;0.50;99.60;;;;;;5041584;28;19932;-71
2022/03/26 04:39:02;;;;;;;;;;;0.40;99.90;;;;;;5047052;28;20367;-71
2022/03/26 04:41:28;;;;;;;;;;;0.30;99.90;;;;;;5033611;28;19959;-71
2022/03/26 04:43:53;;;;;;;;;;;0.30;99.90;;;;;;5033494;28;19909;-71
2022/03/26 04:46:19;;;;;;;;;;;0.30;99.90;;;;;;5034068;28;20421;-71
2022/03/26 04:48:46;;;;;;;;;;;0.30;99.90;;;;;;5040193;28;19916;-71
2022/03/26 04:51:12;;;;;;;;;;;0.30;99.90;;;;;;5049322;28;19943;-71
2022/03/26 04:53:37;;;;;;;;;;;0.30;99.90;;;;;;5033081;28;19909;-71
2022/03/26 04:56:03;;;;;;;;;;;0.40;99.90;;;;;;5033420;28;19970;-71
2022/03/26 04:58:28;;;;;;;;;;;0.20;99.90;;;;;;5033262;28;20011;-71
2022/03/26 05:00:54;;;;;;;;;;;0.10;99.90;;;;;;5042943;28;19978;-71
2022/03/26 05:03:19;;;;;;;;;;;-0.10;99.90;;;;;;5037418;28;19909;-71
2022/03/26 05:05:45;;;;;;;;;;;-0.30;99.90;;;;;;5033007;28;19909;-71
2022/03/26 05:08:10;;;;;;;;;;;-0.50;99.90;;;;;;5033067;28;20395;-71
2022/03/26 05:10:36;;;;;;;;;;;-0.60;99.90;;;;;;5031678;28;19943;-71
2022/03/26 05:13:01;;;;;;;;;;;-0.50;99.90;;;;;;5032844;28;19960;-71
2022/03/26 05:15:27;;;;;;;;;;;-0.40;99.90;;;;;;5032195;28;19944;-72
2022/03/26 05:17:53;;;;;;;;;;;-0.40;99.90;;;;;;5032722;28;19913;-71
2022/03/26 05:20:19;;;;;;;;;;;-0.30;99.90;;;;;;5032708;28;19909;-71
2022/03/26 05:22:46;;;;;;;;;;;-0.30;99.90;;;;;;5034883;28;19916;-71
2022/03/26 05:25:12;;;;;;;;;;;-0.20;99.90;;;;;;5042817;28;19963;-71
2022/03/26 05:27:38;;;;;;;;;;;0.00;99.90;;;;;;5032881;28;19916;-71
2022/03/26 05:30:04;;;;;;;;;;;0.00;99.90;;;;;;5032497;28;19909;-71
2022/03/26 05:32:29;;;;;;;;;;;0.20;99.90;;;;;;5031709;28;20011;-70
2022/03/26 05:34:55;;;;;;;;;;;0.20;99.90;;;;;;5032352;28;20004;-70
2022/03/26 05:37:20;;;;;;;;;;;0.10;99.90;;;;;;5032704;28;19913;-70
2022/03/26 05:39:46;;;;;;;;;;;0.00;99.90;;;;;;5032079;28;20422;-71
2022/03/26 05:42:12;;;;;;;;;;;-0.20;99.90;;;;;;5032534;28;20008;-71
2022/03/26 05:44:37;;;;;;;;;;;-0.40;99.90;;;;;;5039740;28;20381;-71
2022/03/26 05:47:03;;;;;;;;;;;-0.40;99.90;;;;;;5039940;28;19909;-71
2022/03/26 05:49:29;;;;;;;;;;;-0.40;99.90;;;;;;5038273;28;19908;-70
2022/03/26 05:51:54;;;;;;;;;;;-0.40;99.90;;;;;;5039981;28;19909;-70
2022/03/26 05:54:20;;;;;;;;;;;-0.30;99.90;;;;;;5040298;28;19962;-70
2022/03/26 05:56:51;;;;;;;;;;;-0.10;99.90;;;;;;5051359;28;20369;-70
2022/03/26 05:59:17;;;;;;;;;;;0.20;99.90;;;;;;5051329;28;19909;-70
2022/03/26 06:01:43;;;;;;;;;;;0.30;99.90;;;;;;5051068;28;19916;-70
2022/03/26 06:04:08;;;;;;;;;;;0.50;99.90;;;;;;5050935;28;19999;-70
2022/03/26 06:06:34;;;;;;;;;;;0.50;99.90;;;;;;5051211;28;20361;-70
2022/03/26 06:08:59;;;;;;;;;;;0.60;99.90;;;;;;5051280;28;19913;-70
2022/03/26 06:11:25;;;;;;;;;;;0.60;99.90;;;;;;5051020;28;20383;-70
2022/03/26 06:13:50;;;;;;;;;;;0.70;99.90;;;;;;5050829;28;19913;-71
2022/03/26 06:16:16;;;;;;;;;;;0.70;99.90;;;;;;5050688;28;20328;-71
2022/03/26 06:18:42;;;;;;;;;;;0.80;99.90;;;;;;5047957;28;20016;-71
2022/03/26 06:21:08;;;;;;;;;;;0.90;99.90;;;;;;5038147;28;19909;-71
2022/03/26 06:23:33;;;;;;;;;;;1.00;99.90;;;;;;5041800;28;19909;-71
2022/03/26 06:25:59;;;;;;;;;;;1.10;99.90;;;;;;5043060;28;19915;-71
2022/03/26 06:28:24;;;;;;;;;;;1.20;99.90;;;;;;5032437;28;19909;-71
2022/03/26 06:30:51;;;;;;;;;;;1.40;99.90;;;;;;5031824;28;20362;-71
2022/03/26 06:33:17;;;;;;;;;;;1.50;99.90;;;;;;5031428;28;19909;-70
2022/03/26 06:35:44;;;;;;;;;;;1.50;99.90;;;;;;5031731;28;19987;-71
2022/03/26 06:38:10;;;;;;;;;;;1.60;99.90;;;;;;5031760;28;19913;-71
2022/03/26 06:40:37;;;;;;;;;;;1.80;99.90;;;;;;5031822;28;20004;-71
2022/03/26 06:43:03;;;;;;;;;;;2.00;99.90;;;;;;5037601;28;20362;-71
2022/03/26 06:45:28;;;;;;;;;;;2.10;99.90;;;;;;5035345;28;20103;-71
2022/03/26 06:47:54;;;;;;;;;;;2.10;99.90;;;;;;5035078;28;19909;-71
2022/03/26 06:50:19;;;;;;;;;;;2.20;99.90;;;;;;5049007;28;20004;-71
2022/03/26 06:52:45;;;;;;;;;;;2.30;99.90;;;;;;5036416;28;20296;-71
2022/03/26 06:55:10;;;;;;;;;;;2.60;99.90;;;;;;5038593;28;19917;-71
2022/03/26 06:57:37;;;;;;;;;;;2.90;99.90;;;;;;5035442;28;20008;-71
2022/03/26 07:00:04;;;;;;;;;;;3.10;99.90;;;;;;5035103;28;19920;-71
2022/03/26 07:02:29;;;;;;;;;;;3.40;99.20;;;;;;5035138;28;19913;-71
2022/03/26 07:04:55;;;;;;;;;;;3.60;98.10;;;;;;5035329;28;19963;-71
2022/03/26 07:07:21;;;;;;;;;;;3.70;97.70;;;;;;5035260;28;19909;-71
2022/03/26 07:09:46;;;;;;;;;;;3.80;96.90;;;;;;5035301;28;20302;-71
2022/03/26 07:12:12;;;;;;;;;;;4.00;96.30;;;;;;5037718;28;20443;-71
2022/03/26 07:14:38;;;;;;;;;;;4.30;95.40;;;;;;5042883;28;19915;-71
2022/03/26 07:17:03;;;;;;;;;;;4.60;95.30;;;;;;5043069;28;20352;-71
2022/03/26 07:19:29;;;;;;;;;;;4.80;94.90;;;;;;5031137;28;20187;-71
2022/03/26 07:21:55;;;;;;;;;;;5.00;94.20;;;;;;5034669;28;19948;-71
2022/03/26 07:24:20;;;;;;;;;;;5.10;94.00;;;;;;5040276;28;19915;-71
2022/03/26 07:26:46;;;;;;;;;;;5.50;93.30;;;;;;5041777;28;19916;-71
2022/03/26 07:29:11;;;;;;;;;;;5.70;92.10;;;;;;5040063;28;19971;-71
2022/03/26 07:31:37;;;;;;;;;;;5.90;91.40;;;;;;5043625;28;19967;-71
2022/03/26 07:34:02;;;;;;;;;;;6.10;90.00;;;;;;5034379;28;19920;-71
2022/03/26 07:36:28;;;;;;;;;;;6.40;89.00;;;;;;5039072;28;20282;-71
2022/03/26 07:38:53;;;;;;;;;;;6.50;88.30;;;;;;5039662;28;19920;-72
2022/03/26 07:41:21;;;;;;;;;;;6.80;86.90;;;;;;5034080;28;20330;-71
2022/03/26 07:43:47;;;;;;;;;;;6.90;88.40;;;;;;5053774;28;20277;-71
2022/03/26 07:46:14;;;;;;;;;;;7.10;87.00;;;;;;5053934;28;19909;-71
2022/03/26 07:48:39;;;;;;;;;;;7.30;87.50;;;;;;5048612;28;19916;-71
2022/03/26 07:51:05;;;;;;;;;;;7.50;85.70;;;;;;5041064;28;19909;-71
2022/03/26 07:53:30;;;;;;;;;;;7.70;85.30;;;;;;5035557;28;19909;-71
2022/03/26 07:55:56;;;;;;;;;;;8.30;83.40;;;;;;5037818;28;19909;-71
2022/03/26 07:58:22;;;;;;;;;;;10.30;76.30;;;;;;5039424;28;19924;-70
2022/03/26 08:00:49;;;;;;;;;;;12.00;70.40;;;;;;5034160;28;20469;-71
2022/03/26 08:03:14;;;;;;;;;;;12.90;66.70;;;;;;5033969;28;20333;-72
2022/03/26 08:05:40;;;;;;;;;;;14.00;64.30;;;;;;5033885;28;19909;-71
2022/03/26 08:08:06;;;;;;;;;;;14.30;60.00;;;;;;5034087;28;19916;-71
2022/03/26 08:10:32;;;;;;;;;;;14.50;59.50;;;;;;5034385;28;19909;-71
2022/03/26 08:12:57;;;;;;;;;;;15.20;58.60;;;;;;5034002;28;19916;-71
2022/03/26 08:15:23;;;;;;;;;;;15.30;56.50;;;;;;5034119;28;20359;-72
2022/03/26 08:17:48;;;;;;;;;;;15.70;57.30;;;;;;5043026;28;19921;-72
2022/03/26 08:20:14;;;;;;;;;;;15.80;57.20;;;;;;5046590;28;19932;-71
2022/03/26 08:22:41;;;;;;;;;;;16.10;56.00;;;;;;5034038;28;19936;-70
2022/03/26 08:25:09;;;;;;;;;;;16.40;56.10;;;;;;5034499;28;19909;-71
2022/03/26 08:27:36;;;;;;;;;;;16.20;54.10;;;;;;5033854;28;19963;-71
2022/03/26 08:30:02;;;;;;;;;;;16.30;55.20;;;;;;5034806;28;19921;-71
2022/03/26 08:32:27;;;;;;;;;;;16.40;54.00;;;;;;5033572;28;20337;-71
2022/03/26 08:34:53;;;;;;;;;;;17.20;52.80;;;;;;5036423;28;19924;-72
2022/03/26 08:37:18;;;;;;;;;;;17.50;52.10;;;;;;5044510;28;19917;-71
2022/03/26 08:39:44;;;;;;;;;;;17.70;52.10;;;;;;5033503;28;19913;-71
2022/03/26 08:42:10;;;;;;;;;;;17.70;51.30;;;;;;5035641;28;19955;-72
2022/03/26 08:44:35;;;;;;;;;;;18.50;51.20;;;;;;5037809;28;19982;-72
2022/03/26 08:47:04;;;;;;;;;;;18.00;50.30;;;;;;5038297;28;19910;-72
2022/03/26 08:49:30;;;;;;;;;;;18.30;49.90;;;;;;5033076;28;19909;-72
2022/03/26 08:51:55;;;;;;;;;;;18.10;47.70;;;;;;5032695;28;19909;-72
2022/03/26 08:54:21;;;;;;;;;;;18.80;49.30;;;;;;5032705;28;19909;-72
2022/03/26 08:56:46;;;;;;;;;;;19.20;48.30;;;;;;5032647;28;19948;-72
2022/03/26 08:59:12;;;;;;;;;;;19.40;47.60;;;;;;5032614;28;19913;-72
2022/03/26 09:01:38;;;;;;;;;;;19.70;47.10;;;;;;5032542;28;19909;-72
2022/03/26 09:04:03;;;;;;;;;;;20.00;46.70;;;;;;5032499;28;19915;-72
2022/03/26 09:06:29;;;;;;;;;;;19.90;44.80;;;;;;5031864;28;20001;-72
2022/03/26 09:08:55;;;;;;;;;;;19.30;44.90;;;;;;5051771;28;19913;-72
2022/03/26 09:11:20;;;;;;;;;;;20.40;45.70;;;;;;5051379;28;20316;-72
2022/03/26 09:13:46;;;;;;;;;;;20.40;44.20;;;;;;5046281;28;19917;-72
2022/03/26 09:16:11;;;;;;;;;;;19.90;46.00;;;;;;5033096;28;20344;-72
2022/03/26 09:18:37;;;;;;;;;;;20.40;45.10;;;;;;5032340;28;19913;-72
2022/03/26 09:21:02;;;;;;;;;;;20.10;46.10;;;;;;5032604;28;19913;-72
2022/03/26 09:23:28;;;;;;;;;;;19.80;44.90;;;;;;5033905;28;19909;-72
2022/03/26 09:25:53;;;;;;;;;;;20.50;44.20;;;;;;5037878;28;20279;-71
2022/03/26 09:28:19;;;;;;;;;;;19.80;43.70;;;;;;5034065;28;19949;-71
2022/03/26 09:30:45;;;;;;;;;;;20.40;44.20;;;;;;5034276;28;19919;-72
2022/03/26 09:33:10;;;;;;;;;;;21.40;43.50;;;;;;5034158;28;19909;-72
2022/03/26 09:35:36;;;;;;;;;;;23.10;42.30;;;;;;5032331;28;19909;-72
2022/03/26 09:38:01;;;;;;;;;;;21.90;41.40;;;;;;5032050;28;19968;-72
2022/03/26 09:40:27;;;;;;;;;;;22.70;42.50;;;;;;5031008;28;19953;-72
2022/03/26 09:42:53;;;;;;;;;;;22.10;43.50;;;;;;5031844;28;20370;-72
2022/03/26 09:45:19;;;;;;;;;;;21.80;41.00;;;;;;5040977;28;19923;-72
2022/03/26 09:47:44;;;;;;;;;;;21.30;39.40;;;;;;5036278;28;19909;-72
2022/03/26 09:50:11;;;;;;;;;;;22.20;43.00;;;;;;5030322;28;19909;-72
2022/03/26 09:52:37;;;;;;;;;;;23.00;40.10;;;;;;5032198;28;19941;-72
2022/03/26 09:55:03;;;;;;;;;;;22.20;39.90;;;;;;5043007;28;20009;-72
2022/03/26 09:57:29;;;;;;;;;;;21.70;40.80;;;;;;5030271;28;19917;-72
2022/03/26 09:59:54;;;;;;;;;;;22.60;40.40;;;;;;5035874;28;19915;-72
2022/03/26 10:02:20;;;;;;;;;;;23.20;39.10;;;;;;5039263;28;19909;-72
2022/03/26 10:04:45;;;;;;;;;;;23.40;38.60;;;;;;5031878;28;19909;-71
2022/03/26 10:07:11;;;;;;;;;;;23.70;39.00;;;;;;5032054;28;20080;-72
2022/03/26 10:09:38;;;;;;;;;;;23.60;37.80;;;;;;5032246;28;19913;-72
2022/03/26 10:12:12;;;;;;;;;;;23.60;35.40;;;;;;5031842;28;19931;-73
2022/03/26 10:14:41;;;;;;;;;;;23.30;36.70;;;;;;5031742;28;19909;-72
2022/03/26 10:17:12;;;;;;;;;;;24.30;38.50;;;;;;5031574;28;20325;-72
2022/03/26 10:19:41;;;;;;;;;;;23.10;37.30;;;;;;5031770;28;19910;-72
2022/03/26 10:22:11;;;;;;;;;;;23.50;38.30;;;;;;5031650;28;19917;-72
2022/03/26 10:24:41;;;;;;;;;;;25.50;38.50;;;;;;5034968;28;19913;-72
2022/03/26 10:27:11;;;;;;;;;;;25.80;36.00;;;;;;5038856;28;19956;-73
2022/03/26 10:29:49;;;;;;;;;;;26.20;35.70;;;;;;5031625;28;19971;-73
2022/03/26 10:32:39;;;;;;;;;;;26.40;35.70;;;;;;5031559;28;19909;-71
2022/03/26 10:35:15;;;;;;;;;;;25.30;35.20;;;;;;5045560;28;19916;-72
2022/03/26 10:37:44;;;;;;;;;;;25.80;36.00;;;;;;5050528;28;20366;-71
2022/03/26 10:40:22;;;;;;;;;;;24.90;37.00;;;;;;5042777;28;19920;-71
2022/03/26 10:43:22;;;;;;;;;;;25.80;37.20;;;;;;5033139;28;19962;-71
2022/03/26 10:45:52;;;;;;;;;;;25.50;35.30;;;;;;5048484;28;19909;-72
2022/03/26 10:48:24;;;;;;;;;;;25.90;35.10;;;;;;5051928;28;19915;-72
2022/03/26 10:50:58;;;;;;;;;;;24.30;36.80;;;;;;5037967;28;19909;-72
2022/03/26 10:53:32;;;;;;;;;;;25.10;38.50;;;;;;5031159;28;19909;-71
2022/03/26 10:55:57;;;;;;;;;;;24.00;37.80;;;;;;5036826;28;19909;-72
2022/03/26 10:58:23;;;;;;;;;;;26.50;35.40;;;;;;5038195;28;19927;-72
2022/03/26 11:00:49;;;;;;;;;;;26.30;34.90;;;;;;5031465;28;20324;-72
2022/03/26 11:03:17;;;;;;;;;;;25.10;36.20;;;;;;5031165;28;19909;-73
2022/03/26 11:05:43;;;;;;;;;;;24.30;36.00;;;;;;5031374;28;19957;-73
2022/03/26 11:08:11;;;;;;;;;;;25.10;37.00;;;;;;5031705;28;19916;-72
2022/03/26 11:10:37;;;;;;;;;;;26.40;35.00;;;;;;5045298;28;20000;-73
2022/03/26 11:13:03;;;;;;;;;;;25.00;34.20;;;;;;5038705;28;19960;-72
2022/03/26 11:15:31;;;;;;;;;;;24.40;36.30;;;;;;5037375;28;20252;-73
2022/03/26 11:18:08;;;;;;;;;;;24.70;37.00;;;;;;5035653;28;19920;-72
2022/03/26 11:20:52;;;;;;;;;;;25.80;33.80;;;;;;5030830;28;19909;-72
2022/03/26 11:23:18;;;;;;;;;;;24.20;35.10;;;;;;5038008;28;20011;-72
2022/03/26 11:26:02;;;;;;;;;;;24.50;35.60;;;;;;5047553;28;20341;-73
2022/03/26 11:28:30;;;;;;;;;;;25.90;33.10;;;;;;5031247;28;19913;-71
2022/03/26 11:31:07;;;;;;;;;;;25.00;35.20;;;;;;5040650;28;19913;-73
2022/03/26 11:33:34;;;;;;;;;;;24.80;35.70;;;;;;5040809;28;19944;-73
2022/03/26 11:36:01;;;;;;;;;;;24.80;36.30;;;;;;5034980;28;20374;-73
2022/03/26 11:38:28;;;;;;;;;;;25.70;35.70;;;;;;5034643;28;19921;-72
2022/03/26 11:40:55;;;;;;;;;;;26.40;33.70;;;;;;5034596;28;19921;-71
2022/03/26 11:43:39;;;;;;;;;;;25.60;30.60;;;;;;5034253;28;20353;-73
2022/03/26 11:51:36;;;;;;;;;;;26.20;29.90;;;;;;5033864;28;19963;-72
2022/03/26 11:54:13;;;;;;;;;;;26.20;32.50;;;;;;5038428;28;19948;-72
2022/03/26 11:56:39;;;;;;;;;;;25.50;31.70;;;;;;5037890;28;19931;-72
2022/03/26 11:59:13;;;;;;;;;;;25.90;30.00;;;;;;5040623;28;19960;-72
2022/03/26 12:01:40;;;;;;;;;;;25.50;31.90;;;;;;5045218;28;19913;-73
2022/03/26 12:04:12;;;;;;;;;;;25.50;33.80;;;;;;5033647;28;19909;-72
2022/03/26 12:06:46;;;;;;;;;;;24.80;32.20;;;;;;5046873;28;19909;-73
2022/03/26 12:09:30;;;;;;;;;;;20.60;37.00;;;;;;5044708;28;20291;-72
2022/03/26 12:12:15;;;;;;;;;;;19.50;38.40;;;;;;5034151;28;19972;-72
2022/03/26 12:14:59;;;;;;;;;;;18.70;41.00;;;;;;5032679;28;19909;-73
2022/03/26 12:17:44;;;;;;;;;;;18.20;39.60;;;;;;5047185;28;19917;-71
2022/03/26 12:20:23;;;;;;;;;;;18.30;40.30;;;;;;5051194;28;20401;-73
2022/03/26 12:22:50;;;;;;;;;;;17.70;41.30;;;;;;5052014;28;19954;-73
2022/03/26 12:25:18;;;;;;;;;;;18.00;40.50;;;;;;5052041;28;20022;-72
2022/03/26 12:27:44;;;;;;;;;;;17.90;41.60;;;;;;5052737;28;19917;-72
2022/03/26 12:30:10;;;;;;;;;;;17.60;41.40;;;;;;5042135;28;19913;-71
2022/03/26 12:32:36;;;;;;;;;;;17.60;43.70;;;;;;5050549;28;19917;-71
2022/03/26 12:35:05;;;;;;;;;;;17.70;43.80;;;;;;5050002;28;20258;-72
2022/03/26 12:37:33;;;;;;;;;;;17.60;43.90;;;;;;5048047;28;19940;-73
2022/03/26 12:39:59;;;;;;;;;;;17.50;44.60;;;;;;5040260;28;19978;-73
2022/03/26 12:42:25;;;;;;;;;;;17.30;44.40;;;;;;5039132;28;19932;-72
2022/03/26 12:44:51;;;;;;;;;;;17.40;43.30;;;;;;5032925;28;20366;-72
2022/03/26 12:47:17;;;;;;;;;;;17.50;41.70;;;;;;5033521;28;19909;-73
2022/03/26 12:49:44;;;;;;;;;;;17.50;41.70;;;;;;5033317;28;19921;-73
2022/03/26 12:52:10;;;;;;;;;;;17.50;39.70;;;;;;5033210;28;20286;-71
2022/03/26 12:54:36;;;;;;;;;;;17.50;40.30;;;;;;5033108;28;19996;-73
2022/03/26 12:57:01;;;;;;;;;;;17.40;43.30;;;;;;5033158;28;20008;-73
2022/03/26 12:59:28;;;;;;;;;;;17.50;43.60;;;;;;5036352;28;19912;-72
2022/03/26 13:01:57;;;;;;;;;;;17.30;43.90;;;;;;5042037;28;19916;-72
2022/03/26 13:04:22;;;;;;;;;;;17.40;44.40;;;;;;5032624;28;19952;-72
2022/03/26 13:06:52;;;;;;;;;;;17.10;43.40;;;;;;5032845;28;20389;-70
2022/03/26 13:09:18;;;;;;;;;;;17.20;44.10;;;;;;5032791;28;19909;-72
2022/03/26 13:11:43;;;;;;;;;;;17.30;44.80;;;;;;5032835;28;19909;-72
2022/03/26 13:14:10;;;;;;;;;;;17.10;44.20;;;;;;5032575;28;19917;-72
2022/03/26 13:16:37;;;;;;;;;;;17.30;44.60;;;;;;5032775;28;19921;-72
2022/03/26 13:19:04;;;;;;;;;;;17.20;44.70;;;;;;5032657;28;20040;-71
2022/03/26 13:21:33;;;;;;;;;;;17.30;45.50;;;;;;5032532;28;20347;-72
2022/03/26 13:24:00;;;;;;;;;;;17.10;44.20;;;;;;5032286;28;19916;-72
2022/03/26 13:26:44;;;;;;;;;;;17.00;45.20;;;;;;5038508;28;20000;-72
2022/03/26 13:29:10;;;;;;;;;;;17.00;44.80;;;;;;5034823;28;19980;-72
2022/03/26 13:31:39;;;;;;;;;;;16.90;44.50;;;;;;5032347;28;20311;-72
2022/03/26 13:34:08;;;;;;;;;;;17.00;45.30;;;;;;5032210;28;20339;-70
2022/03/26 13:36:34;;;;;;;;;;;17.00;44.40;;;;;;5032172;28;19909;-72
2022/03/26 13:39:12;;;;;;;;;;;17.10;43.80;;;;;;5030833;28;20337;-72
2022/03/26 13:41:37;;;;;;;;;;;17.10;43.20;;;;;;5045271;28;19916;-71
2022/03/26 13:44:03;;;;;;;;;;;17.20;44.50;;;;;;5050909;28;19909;-71
2022/03/26 13:46:29;;;;;;;;;;;17.00;45.70;;;;;;5051093;28;19916;-71
2022/03/26 13:48:55;;;;;;;;;;;16.90;42.40;;;;;;5051522;28;19962;-71
2022/03/26 13:51:28;;;;;;;;;;;17.00;43.00;;;;;;5050731;28;19962;-71
2022/03/26 13:53:53;;;;;;;;;;;16.90;43.50;;;;;;5048345;28;19916;-73
2022/03/26 13:56:23;;;;;;;;;;;17.20;43.00;;;;;;5035944;28;19909;-71
2022/03/26 13:58:50;;;;;;;;;;;17.10;42.20;;;;;;5040819;28;19959;-71
2022/03/26 14:01:16;;;;;;;;;;;17.20;42.60;;;;;;5031584;28;19921;-72
2022/03/26 14:03:42;;;;;;;;;;;17.00;42.90;;;;;;5030873;28;19909;-71
2022/03/26 14:06:08;;;;;;;;;;;16.90;42.70;;;;;;5030878;28;20008;-73
2022/03/26 14:08:34;;;;;;;;;;;16.90;41.60;;;;;;5031160;28;19909;-71
2022/03/26 14:11:00;;;;;;;;;;;16.90;40.80;;;;;;5050592;28;19909;-73
2022/03/26 14:13:25;;;;;;;;;;;16.80;40.50;;;;;;5050709;28;19915;-70
2022/03/26 14:15:51;;;;;;;;;;;17.00;42.00;;;;;;5051064;28;20002;-71
2022/03/26 14:18:18;;;;;;;;;;;16.60;41.50;;;;;;5050927;28;19913;-71
2022/03/26 14:20:44;;;;;;;;;;;16.80;39.60;;;;;;5050246;28;19974;-71
2022/03/26 14:23:10;;;;;;;;;;;16.70;40.40;;;;;;5050191;28;19940;-72
2022/03/26 14:25:37;;;;;;;;;;;16.70;39.80;;;;;;5046551;28;19912;-71
2022/03/26 14:28:03;;;;;;;;;;;16.60;39.90;;;;;;5044301;28;19913;-71